sensor_id;sensor_type;location;lat;lon;timestamp;P1;durP1;ratioP1;P2;durP2;ratioP2
21274;SDS011;36472;52.170;20.884;2023-03-23T00:01:20;38.70;;;26.73;;
21274;SDS011;36472;52.170;20.884;2023-03-23T00:03:52;36.60;;;26.10;;
21274;SDS011;36472;52.170;20.884;2023-03-23T00:06:23;41.88;;;27.38;;
21274;SDS011;36472;52.170;20.884;2023-03-23T00:08:54;40.35;;;27.05;;
21274;SDS011;36472;52.170;20.884;2023-03-23T00:11:25;41.60;;;27.50;;
21274;SDS011;36472;52.170;20.884;2023-03-23T00:13:56;40.17;;;26.33;;
21274;SDS011;36472;52.170;20.884;2023-03-23T00:16:30;42.17;;;27.13;;
21274;SDS011;36472;52.170;20.884;2023-03-23T00:19:03;38.90;;;25.55;;
21274;SDS011;36472;52.170;20.884;2023-03-23T00:21:34;39.38;;;26.05;;
21274;SDS011;36472;52.170;20.884;2023-03-23T00:24:06;40.75;;;26.00;;
21274;SDS011;36472;52.170;20.884;2023-03-23T00:26:37;35.55;;;25.65;;
21274;SDS011;36472;52.170;20.884;2023-03-23T00:29:07;38.25;;;26.15;;
21274;SDS011;36472;52.170;20.884;2023-03-23T00:31:42;37.90;;;24.75;;
21274;SDS011;36472;52.170;20.884;2023-03-23T00:34:13;38.78;;;25.17;;
21274;SDS011;36472;52.170;20.884;2023-03-23T00:36:45;37.28;;;26.45;;
21274;SDS011;36472;52.170;20.884;2023-03-23T00:39:14;38.65;;;25.50;;
21274;SDS011;36472;52.170;20.884;2023-03-23T00:41:47;35.42;;;25.20;;
21274;SDS011;36472;52.170;20.884;2023-03-23T00:44:15;37.28;;;24.17;;
21274;SDS011;36472;52.170;20.884;2023-03-23T00:46:44;36.58;;;24.35;;
21274;SDS011;36472;52.170;20.884;2023-03-23T00:49:16;34.15;;;23.50;;
21274;SDS011;36472;52.170;20.884;2023-03-23T00:51:50;32.92;;;23.75;;
21274;SDS011;36472;52.170;20.884;2023-03-23T00:54:19;34.42;;;23.42;;
21274;SDS011;36472;52.170;20.884;2023-03-23T00:56:49;32.35;;;23.45;;
21274;SDS011;36472;52.170;20.884;2023-03-23T00:59:17;34.75;;;23.50;;
21274;SDS011;36472;52.170;20.884;2023-03-23T01:01:47;36.92;;;23.83;;
21274;SDS011;36472;52.170;20.884;2023-03-23T01:04:16;34.47;;;23.50;;
21274;SDS011;36472;52.170;20.884;2023-03-23T01:06:44;33.53;;;22.98;;
21274;SDS011;36472;52.170;20.884;2023-03-23T01:09:16;33.15;;;22.67;;
21274;SDS011;36472;52.170;20.884;2023-03-23T01:11:47;31.40;;;22.23;;
21274;SDS011;36472;52.170;20.884;2023-03-23T01:14:18;33.25;;;23.17;;
21274;SDS011;36472;52.170;20.884;2023-03-23T01:16:50;39.08;;;23.30;;
21274;SDS011;36472;52.170;20.884;2023-03-23T01:19:19;33.92;;;21.50;;
21274;SDS011;36472;52.170;20.884;2023-03-23T01:21:47;33.45;;;22.00;;
21274;SDS011;36472;52.170;20.884;2023-03-23T01:24:16;33.25;;;22.70;;
21274;SDS011;36472;52.170;20.884;2023-03-23T01:26:43;31.30;;;22.10;;
21274;SDS011;36472;52.170;20.884;2023-03-23T01:29:11;32.42;;;22.42;;
21274;SDS011;36472;52.170;20.884;2023-03-23T01:31:39;31.25;;;21.38;;
21274;SDS011;36472;52.170;20.884;2023-03-23T01:34:10;28.73;;;21.20;;
21274;SDS011;36472;52.170;20.884;2023-03-23T01:36:38;29.02;;;21.25;;
21274;SDS011;36472;52.170;20.884;2023-03-23T01:39:07;36.80;;;22.67;;
21274;SDS011;36472;52.170;20.884;2023-03-23T01:41:35;30.58;;;21.70;;
21274;SDS011;36472;52.170;20.884;2023-03-23T01:47:30;30.10;;;19.98;;
21274;SDS011;36472;52.170;20.884;2023-03-23T01:50:01;32.67;;;21.13;;
21274;SDS011;36472;52.170;20.884;2023-03-23T01:52:29;29.33;;;20.65;;
21274;SDS011;36472;52.170;20.884;2023-03-23T01:55:02;30.52;;;21.20;;
21274;SDS011;36472;52.170;20.884;2023-03-23T01:57:31;31.33;;;20.60;;
21274;SDS011;36472;52.170;20.884;2023-03-23T02:00:03;27.60;;;19.48;;
21274;SDS011;36472;52.170;20.884;2023-03-23T02:02:40;28.25;;;19.85;;
21274;SDS011;36472;52.170;20.884;2023-03-23T02:05:15;30.58;;;20.63;;
21274;SDS011;36472;52.170;20.884;2023-03-23T02:07:51;27.67;;;19.73;;
21274;SDS011;36472;52.170;20.884;2023-03-23T02:10:21;27.85;;;19.67;;
21274;SDS011;36472;52.170;20.884;2023-03-23T02:12:48;27.75;;;19.58;;
21274;SDS011;36472;52.170;20.884;2023-03-23T02:15:17;28.33;;;19.13;;
21274;SDS011;36472;52.170;20.884;2023-03-23T02:17:48;27.23;;;19.60;;
21274;SDS011;36472;52.170;20.884;2023-03-23T02:20:33;27.10;;;19.70;;
21274;SDS011;36472;52.170;20.884;2023-03-23T02:23:30;31.02;;;20.60;;
21274;SDS011;36472;52.170;20.884;2023-03-23T02:26:27;27.55;;;19.48;;
21274;SDS011;36472;52.170;20.884;2023-03-23T02:29:17;28.05;;;19.85;;
21274;SDS011;36472;52.170;20.884;2023-03-23T02:32:16;27.65;;;19.20;;
21274;SDS011;36472;52.170;20.884;2023-03-23T02:35:14;28.38;;;19.50;;
21274;SDS011;36472;52.170;20.884;2023-03-23T02:37:49;29.05;;;19.77;;
21274;SDS011;36472;52.170;20.884;2023-03-23T02:40:25;26.85;;;19.65;;
21274;SDS011;36472;52.170;20.884;2023-03-23T02:43:00;26.50;;;20.00;;
21274;SDS011;36472;52.170;20.884;2023-03-23T02:45:34;24.90;;;18.08;;
21274;SDS011;36472;52.170;20.884;2023-03-23T02:48:05;24.83;;;18.30;;
21274;SDS011;36472;52.170;20.884;2023-03-23T02:50:39;25.95;;;18.27;;
21274;SDS011;36472;52.170;20.884;2023-03-23T02:53:11;25.85;;;18.65;;
21274;SDS011;36472;52.170;20.884;2023-03-23T02:55:45;26.88;;;18.65;;
21274;SDS011;36472;52.170;20.884;2023-03-23T02:58:19;24.55;;;17.63;;
21274;SDS011;36472;52.170;20.884;2023-03-23T03:00:48;25.45;;;17.73;;
21274;SDS011;36472;52.170;20.884;2023-03-23T03:03:20;23.95;;;17.73;;
21274;SDS011;36472;52.170;20.884;2023-03-23T03:05:54;23.83;;;16.38;;
21274;SDS011;36472;52.170;20.884;2023-03-23T03:08:39;21.75;;;16.13;;
21274;SDS011;36472;52.170;20.884;2023-03-23T03:11:16;23.25;;;16.80;;
21274;SDS011;36472;52.170;20.884;2023-03-23T03:13:49;26.73;;;17.60;;
21274;SDS011;36472;52.170;20.884;2023-03-23T03:16:26;22.70;;;16.75;;
21274;SDS011;36472;52.170;20.884;2023-03-23T03:19:02;24.83;;;16.85;;
21274;SDS011;36472;52.170;20.884;2023-03-23T03:21:41;25.48;;;15.90;;
21274;SDS011;36472;52.170;20.884;2023-03-23T03:24:17;25.67;;;16.40;;
21274;SDS011;36472;52.170;20.884;2023-03-23T03:26:51;21.52;;;15.95;;
21274;SDS011;36472;52.170;20.884;2023-03-23T03:29:32;21.70;;;16.50;;
21274;SDS011;36472;52.170;20.884;2023-03-23T03:32:04;22.80;;;16.33;;
21274;SDS011;36472;52.170;20.884;2023-03-23T03:34:35;24.63;;;16.35;;
21274;SDS011;36472;52.170;20.884;2023-03-23T03:37:06;24.00;;;16.08;;
21274;SDS011;36472;52.170;20.884;2023-03-23T03:39:35;23.85;;;16.30;;
21274;SDS011;36472;52.170;20.884;2023-03-23T03:42:04;22.70;;;16.75;;
21274;SDS011;36472;52.170;20.884;2023-03-23T03:44:33;23.83;;;16.90;;
21274;SDS011;36472;52.170;20.884;2023-03-23T03:47:01;23.33;;;16.88;;
21274;SDS011;36472;52.170;20.884;2023-03-23T03:49:30;22.83;;;17.15;;
21274;SDS011;36472;52.170;20.884;2023-03-23T03:51:57;23.17;;;16.73;;
21274;SDS011;36472;52.170;20.884;2023-03-23T03:54:36;21.65;;;16.80;;
21274;SDS011;36472;52.170;20.884;2023-03-23T03:57:06;22.30;;;16.08;;
21274;SDS011;36472;52.170;20.884;2023-03-23T03:59:54;22.75;;;17.00;;
21274;SDS011;36472;52.170;20.884;2023-03-23T04:02:44;22.85;;;16.42;;
21274;SDS011;36472;52.170;20.884;2023-03-23T04:05:24;23.23;;;16.27;;
21274;SDS011;36472;52.170;20.884;2023-03-23T04:07:54;22.73;;;16.08;;
21274;SDS011;36472;52.170;20.884;2023-03-23T04:10:30;21.63;;;15.25;;
21274;SDS011;36472;52.170;20.884;2023-03-23T04:13:00;21.52;;;15.05;;
21274;SDS011;36472;52.170;20.884;2023-03-23T04:15:49;24.42;;;15.77;;
21274;SDS011;36472;52.170;20.884;2023-03-23T04:18:17;22.73;;;16.10;;
21274;SDS011;36472;52.170;20.884;2023-03-23T04:20:48;21.40;;;16.23;;
21274;SDS011;36472;52.170;20.884;2023-03-23T04:23:19;25.00;;;15.63;;
21274;SDS011;36472;52.170;20.884;2023-03-23T04:25:52;22.10;;;16.42;;
21274;SDS011;36472;52.170;20.884;2023-03-23T04:28:25;20.95;;;15.35;;
21274;SDS011;36472;52.170;20.884;2023-03-23T04:31:26;21.48;;;15.70;;
21274;SDS011;36472;52.170;20.884;2023-03-23T04:34:03;21.77;;;15.80;;
21274;SDS011;36472;52.170;20.884;2023-03-23T04:36:38;21.48;;;15.40;;
21274;SDS011;36472;52.170;20.884;2023-03-23T04:39:13;24.05;;;16.88;;
21274;SDS011;36472;52.170;20.884;2023-03-23T04:41:44;25.67;;;16.42;;
21274;SDS011;36472;52.170;20.884;2023-03-23T04:44:43;23.85;;;15.63;;
21274;SDS011;36472;52.170;20.884;2023-03-23T04:47:24;21.65;;;14.80;;
21274;SDS011;36472;52.170;20.884;2023-03-23T04:49:57;21.25;;;15.30;;
21274;SDS011;36472;52.170;20.884;2023-03-23T04:52:35;23.13;;;14.95;;
21274;SDS011;36472;52.170;20.884;2023-03-23T04:55:07;21.75;;;14.95;;
21274;SDS011;36472;52.170;20.884;2023-03-23T04:57:39;24.30;;;16.40;;
21274;SDS011;36472;52.170;20.884;2023-03-23T05:00:45;19.20;;;14.38;;
21274;SDS011;36472;52.170;20.884;2023-03-23T05:03:16;21.15;;;15.02;;
21274;SDS011;36472;52.170;20.884;2023-03-23T05:05:46;20.60;;;14.75;;
21274;SDS011;36472;52.170;20.884;2023-03-23T05:08:18;19.45;;;15.02;;
21274;SDS011;36472;52.170;20.884;2023-03-23T05:10:50;19.92;;;14.80;;
21274;SDS011;36472;52.170;20.884;2023-03-23T05:13:23;22.48;;;15.07;;
21274;SDS011;36472;52.170;20.884;2023-03-23T05:15:54;18.02;;;14.57;;
21274;SDS011;36472;52.170;20.884;2023-03-23T05:18:22;22.23;;;14.73;;
21274;SDS011;36472;52.170;20.884;2023-03-23T05:20:52;21.65;;;14.90;;
21274;SDS011;36472;52.170;20.884;2023-03-23T05:23:22;20.60;;;14.85;;
21274;SDS011;36472;52.170;20.884;2023-03-23T05:25:56;21.38;;;15.25;;
21274;SDS011;36472;52.170;20.884;2023-03-23T05:28:30;21.83;;;14.82;;
21274;SDS011;36472;52.170;20.884;2023-03-23T05:31:06;20.40;;;15.18;;
21274;SDS011;36472;52.170;20.884;2023-03-23T05:33:34;21.17;;;14.25;;
21274;SDS011;36472;52.170;20.884;2023-03-23T05:36:10;19.40;;;13.05;;
21274;SDS011;36472;52.170;20.884;2023-03-23T05:38:57;19.23;;;14.63;;
21274;SDS011;36472;52.170;20.884;2023-03-23T05:41:37;22.13;;;14.98;;
21274;SDS011;36472;52.170;20.884;2023-03-23T05:44:07;25.30;;;15.35;;
21274;SDS011;36472;52.170;20.884;2023-03-23T05:46:51;20.05;;;14.35;;
21274;SDS011;36472;52.170;20.884;2023-03-23T05:49:19;21.67;;;13.82;;
21274;SDS011;36472;52.170;20.884;2023-03-23T05:51:48;21.45;;;13.73;;
21274;SDS011;36472;52.170;20.884;2023-03-23T05:54:17;19.40;;;14.20;;
21274;SDS011;36472;52.170;20.884;2023-03-23T05:56:47;22.40;;;15.52;;
21274;SDS011;36472;52.170;20.884;2023-03-23T05:59:49;19.67;;;13.85;;
21274;SDS011;36472;52.170;20.884;2023-03-23T06:02:21;17.98;;;13.60;;
21274;SDS011;36472;52.170;20.884;2023-03-23T06:04:52;21.63;;;15.55;;
21274;SDS011;36472;52.170;20.884;2023-03-23T06:07:32;20.45;;;14.68;;
21274;SDS011;36472;52.170;20.884;2023-03-23T06:10:05;20.90;;;14.45;;
21274;SDS011;36472;52.170;20.884;2023-03-23T06:12:40;18.13;;;14.05;;
21274;SDS011;36472;52.170;20.884;2023-03-23T06:15:21;20.15;;;14.55;;
21274;SDS011;36472;52.170;20.884;2023-03-23T06:17:59;17.55;;;13.20;;
21274;SDS011;36472;52.170;20.884;2023-03-23T06:20:45;18.23;;;13.50;;
21274;SDS011;36472;52.170;20.884;2023-03-23T06:23:22;20.25;;;13.20;;
21274;SDS011;36472;52.170;20.884;2023-03-23T06:25:53;16.42;;;12.32;;
21274;SDS011;36472;52.170;20.884;2023-03-23T06:28:23;22.55;;;13.10;;
21274;SDS011;36472;52.170;20.884;2023-03-23T06:30:52;18.40;;;12.32;;
21274;SDS011;36472;52.170;20.884;2023-03-23T06:33:20;20.98;;;12.00;;
21274;SDS011;36472;52.170;20.884;2023-03-23T06:36:21;17.80;;;13.15;;
21274;SDS011;36472;52.170;20.884;2023-03-23T06:39:11;32.58;;;18.98;;
21274;SDS011;36472;52.170;20.884;2023-03-23T06:42:02;31.05;;;17.20;;
21274;SDS011;36472;52.170;20.884;2023-03-23T06:44:36;26.13;;;15.88;;
21274;SDS011;36472;52.170;20.884;2023-03-23T06:47:05;20.63;;;14.23;;
21274;SDS011;36472;52.170;20.884;2023-03-23T06:49:37;21.27;;;14.13;;
21274;SDS011;36472;52.170;20.884;2023-03-23T06:52:25;20.23;;;13.88;;
21274;SDS011;36472;52.170;20.884;2023-03-23T06:54:53;20.65;;;13.93;;
21274;SDS011;36472;52.170;20.884;2023-03-23T06:57:22;18.65;;;13.63;;
21274;SDS011;36472;52.170;20.884;2023-03-23T06:59:51;18.13;;;12.10;;
21274;SDS011;36472;52.170;20.884;2023-03-23T07:02:23;20.02;;;12.73;;
21274;SDS011;36472;52.170;20.884;2023-03-23T07:04:52;15.27;;;10.65;;
21274;SDS011;36472;52.170;20.884;2023-03-23T07:07:24;14.60;;;11.23;;
21274;SDS011;36472;52.170;20.884;2023-03-23T07:10:07;16.02;;;10.77;;
21274;SDS011;36472;52.170;20.884;2023-03-23T07:12:38;13.00;;;11.05;;
21274;SDS011;36472;52.170;20.884;2023-03-23T07:15:09;14.65;;;10.23;;
21274;SDS011;36472;52.170;20.884;2023-03-23T07:17:42;14.70;;;9.65;;
21274;SDS011;36472;52.170;20.884;2023-03-23T07:20:24;14.02;;;9.95;;
21274;SDS011;36472;52.170;20.884;2023-03-23T07:22:53;14.48;;;9.63;;
21274;SDS011;36472;52.170;20.884;2023-03-23T07:25:56;13.48;;;9.75;;
21274;SDS011;36472;52.170;20.884;2023-03-23T07:28:31;13.45;;;9.32;;
21274;SDS011;36472;52.170;20.884;2023-03-23T07:31:06;13.02;;;9.55;;
21274;SDS011;36472;52.170;20.884;2023-03-23T07:33:37;17.75;;;9.70;;
21274;SDS011;36472;52.170;20.884;2023-03-23T07:36:07;17.08;;;9.68;;
21274;SDS011;36472;52.170;20.884;2023-03-23T07:38:37;12.15;;;9.15;;
21274;SDS011;36472;52.170;20.884;2023-03-23T07:41:05;13.88;;;8.90;;
21274;SDS011;36472;52.170;20.884;2023-03-23T07:43:35;12.75;;;9.02;;
21274;SDS011;36472;52.170;20.884;2023-03-23T07:46:19;12.50;;;9.10;;
21274;SDS011;36472;52.170;20.884;2023-03-23T07:49:12;12.90;;;8.65;;
21274;SDS011;36472;52.170;20.884;2023-03-23T07:51:51;11.75;;;8.25;;
21274;SDS011;36472;52.170;20.884;2023-03-23T07:54:19;13.60;;;9.27;;
21274;SDS011;36472;52.170;20.884;2023-03-23T07:57:02;12.35;;;8.35;;
21274;SDS011;36472;52.170;20.884;2023-03-23T07:59:37;13.52;;;8.77;;
21274;SDS011;36472;52.170;20.884;2023-03-23T08:02:05;11.25;;;8.10;;
21274;SDS011;36472;52.170;20.884;2023-03-23T08:04:49;10.98;;;8.68;;
21274;SDS011;36472;52.170;20.884;2023-03-23T08:07:37;10.80;;;8.35;;
21274;SDS011;36472;52.170;20.884;2023-03-23T08:10:26;13.77;;;7.90;;
21274;SDS011;36472;52.170;20.884;2023-03-23T08:13:19;11.13;;;8.05;;
21274;SDS011;36472;52.170;20.884;2023-03-23T08:16:06;8.73;;;7.68;;
21274;SDS011;36472;52.170;20.884;2023-03-23T08:18:55;10.43;;;7.22;;
21274;SDS011;36472;52.170;20.884;2023-03-23T08:21:27;13.75;;;7.75;;
21274;SDS011;36472;52.170;20.884;2023-03-23T08:24:17;11.50;;;7.85;;
21274;SDS011;36472;52.170;20.884;2023-03-23T08:26:56;10.88;;;6.95;;
21274;SDS011;36472;52.170;20.884;2023-03-23T08:29:24;9.65;;;7.28;;
21274;SDS011;36472;52.170;20.884;2023-03-23T08:32:13;11.05;;;6.88;;
21274;SDS011;36472;52.170;20.884;2023-03-23T08:35:08;10.93;;;6.93;;
21274;SDS011;36472;52.170;20.884;2023-03-23T08:37:59;8.93;;;7.13;;
21274;SDS011;36472;52.170;20.884;2023-03-23T08:41:04;8.88;;;6.72;;
21274;SDS011;36472;52.170;20.884;2023-03-23T08:43:56;8.05;;;5.85;;
21274;SDS011;36472;52.170;20.884;2023-03-23T08:46:37;8.52;;;6.35;;
21274;SDS011;36472;52.170;20.884;2023-03-23T08:49:16;11.50;;;6.55;;
21274;SDS011;36472;52.170;20.884;2023-03-23T08:52:06;10.68;;;6.53;;
21274;SDS011;36472;52.170;20.884;2023-03-23T08:55:14;9.80;;;5.95;;
21274;SDS011;36472;52.170;20.884;2023-03-23T08:58:01;8.35;;;5.80;;
21274;SDS011;36472;52.170;20.884;2023-03-23T09:00:50;8.30;;;5.45;;
21274;SDS011;36472;52.170;20.884;2023-03-23T09:03:27;8.45;;;5.50;;
21274;SDS011;36472;52.170;20.884;2023-03-23T09:06:08;6.97;;;5.88;;
21274;SDS011;36472;52.170;20.884;2023-03-23T09:08:47;9.63;;;6.07;;
21274;SDS011;36472;52.170;20.884;2023-03-23T09:11:17;7.07;;;5.03;;
21274;SDS011;36472;52.170;20.884;2023-03-23T09:13:45;7.13;;;4.68;;
21274;SDS011;36472;52.170;20.884;2023-03-23T09:16:13;7.63;;;5.47;;
21274;SDS011;36472;52.170;20.884;2023-03-23T09:18:41;6.78;;;4.57;;
21274;SDS011;36472;52.170;20.884;2023-03-23T09:21:09;6.50;;;4.50;;
21274;SDS011;36472;52.170;20.884;2023-03-23T09:23:38;6.82;;;4.78;;
21274;SDS011;36472;52.170;20.884;2023-03-23T09:26:29;5.75;;;4.53;;
21274;SDS011;36472;52.170;20.884;2023-03-23T09:28:58;7.13;;;4.40;;
21274;SDS011;36472;52.170;20.884;2023-03-23T09:31:26;7.28;;;4.57;;
21274;SDS011;36472;52.170;20.884;2023-03-23T09:33:53;6.15;;;4.30;;
21274;SDS011;36472;52.170;20.884;2023-03-23T09:36:23;7.78;;;4.63;;
21274;SDS011;36472;52.170;20.884;2023-03-23T09:38:51;4.72;;;4.05;;
21274;SDS011;36472;52.170;20.884;2023-03-23T09:41:27;5.93;;;4.07;;
21274;SDS011;36472;52.170;20.884;2023-03-23T09:44:26;7.35;;;4.50;;
21274;SDS011;36472;52.170;20.884;2023-03-23T09:47:08;7.05;;;5.10;;
21274;SDS011;36472;52.170;20.884;2023-03-23T09:49:48;10.27;;;6.22;;
21274;SDS011;36472;52.170;20.884;2023-03-23T09:52:24;9.30;;;5.40;;
21274;SDS011;36472;52.170;20.884;2023-03-23T09:55:04;7.43;;;4.05;;
21274;SDS011;36472;52.170;20.884;2023-03-23T09:57:40;7.03;;;4.22;;
21274;SDS011;36472;52.170;20.884;2023-03-23T10:00:17;5.53;;;3.90;;
21274;SDS011;36472;52.170;20.884;2023-03-23T10:02:52;5.20;;;3.78;;
21274;SDS011;36472;52.170;20.884;2023-03-23T10:05:30;4.50;;;3.80;;
21274;SDS011;36472;52.170;20.884;2023-03-23T10:08:02;7.15;;;4.13;;
21274;SDS011;36472;52.170;20.884;2023-03-23T10:10:43;7.07;;;4.20;;
21274;SDS011;36472;52.170;20.884;2023-03-23T10:13:28;6.63;;;4.07;;
21274;SDS011;36472;52.170;20.884;2023-03-23T10:16:19;7.43;;;4.53;;
21274;SDS011;36472;52.170;20.884;2023-03-23T10:18:54;5.18;;;3.90;;
21274;SDS011;36472;52.170;20.884;2023-03-23T10:21:27;5.47;;;3.80;;
21274;SDS011;36472;52.170;20.884;2023-03-23T10:23:58;9.38;;;4.57;;
21274;SDS011;36472;52.170;20.884;2023-03-23T10:26:33;30.40;;;12.77;;
21274;SDS011;36472;52.170;20.884;2023-03-23T10:29:14;20.02;;;12.05;;
21274;SDS011;36472;52.170;20.884;2023-03-23T10:31:49;8.70;;;6.40;;
21274;SDS011;36472;52.170;20.884;2023-03-23T10:34:23;5.57;;;4.00;;
21274;SDS011;36472;52.170;20.884;2023-03-23T10:37:03;5.03;;;3.70;;
21274;SDS011;36472;52.170;20.884;2023-03-23T10:39:42;6.97;;;4.07;;
21274;SDS011;36472;52.170;20.884;2023-03-23T10:42:22;7.85;;;5.00;;
21274;SDS011;36472;52.170;20.884;2023-03-23T10:44:55;6.03;;;4.28;;
21274;SDS011;36472;52.170;20.884;2023-03-23T10:47:27;9.05;;;4.43;;
21274;SDS011;36472;52.170;20.884;2023-03-23T10:49:56;7.10;;;4.57;;
21274;SDS011;36472;52.170;20.884;2023-03-23T10:52:31;7.70;;;4.75;;
21274;SDS011;36472;52.170;20.884;2023-03-23T10:55:03;5.78;;;4.60;;
21274;SDS011;36472;52.170;20.884;2023-03-23T10:57:36;8.05;;;5.22;;
21274;SDS011;36472;52.170;20.884;2023-03-23T11:00:17;6.88;;;5.10;;
21274;SDS011;36472;52.170;20.884;2023-03-23T11:02:57;6.97;;;4.25;;
21274;SDS011;36472;52.170;20.884;2023-03-23T11:05:32;10.52;;;4.40;;
21274;SDS011;36472;52.170;20.884;2023-03-23T11:08:10;5.20;;;4.60;;
21274;SDS011;36472;52.170;20.884;2023-03-23T11:10:42;8.15;;;4.35;;
21274;SDS011;36472;52.170;20.884;2023-03-23T11:13:19;4.82;;;3.80;;
21274;SDS011;36472;52.170;20.884;2023-03-23T11:15:51;4.85;;;3.22;;
21274;SDS011;36472;52.170;20.884;2023-03-23T11:18:19;1.98;;;1.48;;
21274;SDS011;36472;52.170;20.884;2023-03-23T11:20:50;2.72;;;1.75;;
21274;SDS011;36472;52.170;20.884;2023-03-23T11:23:22;2.33;;;1.50;;
21274;SDS011;36472;52.170;20.884;2023-03-23T11:25:56;3.70;;;1.77;;
21274;SDS011;36472;52.170;20.884;2023-03-23T11:28:42;3.50;;;1.65;;
21274;SDS011;36472;52.170;20.884;2023-03-23T11:31:15;3.03;;;2.03;;
21274;SDS011;36472;52.170;20.884;2023-03-23T11:33:49;2.55;;;2.20;;
21274;SDS011;36472;52.170;20.884;2023-03-23T11:36:28;3.30;;;2.45;;
21274;SDS011;36472;52.170;20.884;2023-03-23T11:39:02;5.97;;;2.20;;
21274;SDS011;36472;52.170;20.884;2023-03-23T11:41:46;3.83;;;2.50;;
21274;SDS011;36472;52.170;20.884;2023-03-23T11:44:14;2.60;;;2.10;;
21274;SDS011;36472;52.170;20.884;2023-03-23T12:40:28;7.88;;;3.40;;
21274;SDS011;36472;52.170;20.884;2023-03-23T12:43:26;4.20;;;2.95;;
21274;SDS011;36472;52.170;20.884;2023-03-23T12:46:08;5.28;;;2.97;;
21274;SDS011;36472;52.170;20.884;2023-03-23T12:48:51;6.28;;;3.03;;
21274;SDS011;36472;52.170;20.884;2023-03-23T12:51:27;4.65;;;2.95;;
21274;SDS011;36472;52.170;20.884;2023-03-23T12:54:07;5.32;;;3.90;;
21274;SDS011;36472;52.170;20.884;2023-03-23T12:56:46;9.38;;;3.78;;
21274;SDS011;36472;52.170;20.884;2023-03-23T12:59:24;6.90;;;3.70;;
21274;SDS011;36472;52.170;20.884;2023-03-23T13:02:02;5.80;;;3.55;;
21274;SDS011;36472;52.170;20.884;2023-03-23T13:04:41;4.75;;;3.63;;
21274;SDS011;36472;52.170;20.884;2023-03-23T13:07:18;5.20;;;3.40;;
21274;SDS011;36472;52.170;20.884;2023-03-23T13:10:02;3.97;;;3.33;;
21274;SDS011;36472;52.170;20.884;2023-03-23T13:12:40;5.60;;;3.65;;
21274;SDS011;36472;52.170;20.884;2023-03-23T13:15:15;5.22;;;3.38;;
21274;SDS011;36472;52.170;20.884;2023-03-23T13:17:54;6.43;;;3.50;;
21274;SDS011;36472;52.170;20.884;2023-03-23T13:20:38;6.20;;;3.85;;
21274;SDS011;36472;52.170;20.884;2023-03-23T13:23:21;5.80;;;3.88;;
21274;SDS011;36472;52.170;20.884;2023-03-23T13:25:55;4.30;;;3.40;;
21274;SDS011;36472;52.170;20.884;2023-03-23T13:28:29;6.38;;;3.40;;
21274;SDS011;36472;52.170;20.884;2023-03-23T13:31:01;6.55;;;3.22;;
21274;SDS011;36472;52.170;20.884;2023-03-23T13:33:38;12.63;;;4.28;;
21274;SDS011;36472;52.170;20.884;2023-03-23T13:36:13;5.28;;;3.28;;
21274;SDS011;36472;52.170;20.884;2023-03-23T13:38:45;5.32;;;3.00;;
21274;SDS011;36472;52.170;20.884;2023-03-23T13:41:17;4.20;;;2.72;;
21274;SDS011;36472;52.170;20.884;2023-03-23T13:43:49;3.90;;;2.85;;
21274;SDS011;36472;52.170;20.884;2023-03-23T13:46:24;4.60;;;2.72;;
21274;SDS011;36472;52.170;20.884;2023-03-23T13:49:21;7.60;;;2.92;;
21274;SDS011;36472;52.170;20.884;2023-03-23T13:51:53;5.15;;;2.78;;
21274;SDS011;36472;52.170;20.884;2023-03-23T13:59:31;4.68;;;3.00;;
21274;SDS011;36472;52.170;20.884;2023-03-23T14:11:11;5.88;;;2.95;;
21274;SDS011;36472;52.170;20.884;2023-03-23T14:18:18;5.28;;;3.42;;
21274;SDS011;36472;52.170;20.884;2023-03-23T14:20:50;5.43;;;3.53;;
21274;SDS011;36472;52.170;20.884;2023-03-23T14:27:51;6.32;;;3.30;;
21274;SDS011;36472;52.170;20.884;2023-03-23T14:30:20;8.43;;;3.40;;
21274;SDS011;36472;52.170;20.884;2023-03-23T14:32:51;4.13;;;3.10;;
21274;SDS011;36472;52.170;20.884;2023-03-23T14:35:23;5.47;;;4.45;;
21274;SDS011;36472;52.170;20.884;2023-03-23T14:37:56;4.20;;;3.50;;
21274;SDS011;36472;52.170;20.884;2023-03-23T14:40:25;8.95;;;5.70;;
21274;SDS011;36472;52.170;20.884;2023-03-23T14:42:56;7.53;;;3.97;;
21274;SDS011;36472;52.170;20.884;2023-03-23T14:49:59;5.72;;;3.90;;
21274;SDS011;36472;52.170;20.884;2023-03-23T14:52:34;4.75;;;3.65;;
21274;SDS011;36472;52.170;20.884;2023-03-23T14:59:39;7.10;;;3.72;;
21274;SDS011;36472;52.170;20.884;2023-03-23T15:02:10;4.53;;;3.80;;
21274;SDS011;36472;52.170;20.884;2023-03-23T15:09:18;6.68;;;3.88;;
21274;SDS011;36472;52.170;20.884;2023-03-23T15:11:53;6.15;;;4.43;;
21274;SDS011;36472;52.170;20.884;2023-03-23T15:14:26;5.72;;;4.60;;
21274;SDS011;36472;52.170;20.884;2023-03-23T15:16:58;7.43;;;5.32;;
21274;SDS011;36472;52.170;20.884;2023-03-23T15:19:28;6.82;;;5.00;;
21274;SDS011;36472;52.170;20.884;2023-03-23T15:26:41;7.55;;;5.20;;
21274;SDS011;36472;52.170;20.884;2023-03-23T15:29:11;6.93;;;4.90;;
21274;SDS011;36472;52.170;20.884;2023-03-23T15:31:45;8.40;;;4.85;;
21274;SDS011;36472;52.170;20.884;2023-03-23T15:38:46;7.15;;;5.55;;
21274;SDS011;36472;52.170;20.884;2023-03-23T15:41:22;9.07;;;5.30;;
21274;SDS011;36472;52.170;20.884;2023-03-23T15:43:54;6.70;;;4.75;;
21274;SDS011;36472;52.170;20.884;2023-03-23T15:46:25;6.43;;;4.97;;
21274;SDS011;36472;52.170;20.884;2023-03-23T15:49:04;7.60;;;5.25;;
21274;SDS011;36472;52.170;20.884;2023-03-23T15:51:39;8.48;;;4.97;;
21274;SDS011;36472;52.170;20.884;2023-03-23T15:58:39;6.68;;;5.38;;
21274;SDS011;36472;52.170;20.884;2023-03-23T16:01:13;9.27;;;4.85;;
21274;SDS011;36472;52.170;20.884;2023-03-23T16:03:45;7.88;;;4.65;;
21274;SDS011;36472;52.170;20.884;2023-03-23T16:10:51;9.02;;;4.72;;
21274;SDS011;36472;52.170;20.884;2023-03-23T16:13:20;8.48;;;5.00;;
21274;SDS011;36472;52.170;20.884;2023-03-23T16:15:49;12.23;;;4.68;;
21274;SDS011;36472;52.170;20.884;2023-03-23T16:18:20;7.93;;;4.95;;
21274;SDS011;36472;52.170;20.884;2023-03-23T16:20:50;6.88;;;5.15;;
21274;SDS011;36472;52.170;20.884;2023-03-23T16:23:18;7.20;;;5.43;;
21274;SDS011;36472;52.170;20.884;2023-03-23T16:25:48;5.82;;;4.85;;
21274;SDS011;36472;52.170;20.884;2023-03-23T16:28:17;9.05;;;5.35;;
21274;SDS011;36472;52.170;20.884;2023-03-23T16:30:47;7.00;;;5.20;;
21274;SDS011;36472;52.170;20.884;2023-03-23T16:33:16;7.28;;;5.00;;
21274;SDS011;36472;52.170;20.884;2023-03-23T16:35:46;6.63;;;4.82;;
21274;SDS011;36472;52.170;20.884;2023-03-23T16:42:47;6.70;;;4.40;;
21274;SDS011;36472;52.170;20.884;2023-03-23T16:45:17;8.88;;;4.97;;
21274;SDS011;36472;52.170;20.884;2023-03-23T16:47:47;7.78;;;4.97;;
21274;SDS011;36472;52.170;20.884;2023-03-23T16:50:17;8.23;;;4.55;;
21274;SDS011;36472;52.170;20.884;2023-03-23T16:52:48;6.13;;;4.47;;
21274;SDS011;36472;52.170;20.884;2023-03-23T16:55:17;6.80;;;4.60;;
21274;SDS011;36472;52.170;20.884;2023-03-23T16:57:46;7.68;;;4.47;;
21274;SDS011;36472;52.170;20.884;2023-03-23T17:09:24;10.52;;;5.50;;
21274;SDS011;36472;52.170;20.884;2023-03-23T17:11:53;6.80;;;5.75;;
21274;SDS011;36472;52.170;20.884;2023-03-23T17:14:22;7.32;;;5.50;;